createdAt,value
2022-09-25T00:02:14.187Z,13.90
2022-09-25T00:04:45.505Z,13.89
2022-09-25T00:07:16.754Z,13.88
2022-09-25T00:09:48.021Z,13.82
2022-09-25T00:12:19.298Z,13.86
2022-09-25T00:14:51.615Z,13.85
2022-09-25T00:17:22.954Z,13.84
2022-09-25T00:19:54.332Z,13.83
2022-09-25T00:22:26.725Z,13.80
2022-09-25T00:24:57.987Z,13.84
2022-09-25T00:27:29.403Z,13.81
2022-09-25T00:30:00.820Z,13.78
2022-09-25T00:32:32.462Z,13.72
2022-09-25T00:35:04.838Z,13.85
2022-09-25T00:37:36.850Z,13.90
2022-09-25T00:40:08.595Z,13.90
2022-09-25T00:42:41.189Z,13.94
2022-09-25T00:45:22.051Z,13.96
2022-09-25T00:48:00.741Z,13.97
2022-09-25T00:50:41.453Z,13.98
2022-09-25T00:53:18.881Z,13.97
2022-09-25T00:55:50.857Z,14.00
2022-09-25T00:58:24.614Z,14.02
2022-09-25T01:00:56.054Z,13.97
2022-09-25T01:03:28.278Z,13.94
2022-09-25T01:06:00.796Z,13.99
2022-09-25T01:08:34.111Z,14.01
2022-09-25T01:11:05.439Z,13.94
2022-09-25T01:13:39.064Z,13.95
2022-09-25T01:16:42.908Z,14.00
2022-09-25T01:19:32.173Z,14.00
2022-09-25T01:22:32.442Z,13.96
2022-09-25T01:25:35.002Z,14.00
2022-09-25T01:28:37.498Z,14.00
2022-09-25T01:31:17.786Z,13.95
2022-09-25T01:33:58.565Z,14.00
2022-09-25T01:36:38.473Z,13.99
2022-09-25T01:39:20.413Z,13.94
2022-09-25T01:42:00.729Z,13.90
2022-09-25T01:44:34.630Z,13.98
2022-09-25T01:47:10.669Z,13.99
2022-09-25T01:49:53.186Z,13.97
2022-09-25T01:52:32.867Z,13.96
2022-09-25T01:55:12.376Z,13.83
2022-09-25T01:57:49.196Z,13.94
2022-09-25T02:00:22.867Z,13.95
2022-09-25T02:03:06.270Z,13.91
2022-09-25T02:05:45.202Z,13.93
2022-09-25T02:08:49.667Z,13.92
2022-09-25T02:11:21.612Z,13.89
2022-09-25T02:14:02.529Z,13.86
2022-09-25T02:16:44.663Z,13.85
2022-09-25T02:19:36.052Z,13.77
2022-09-25T02:22:20.604Z,13.77
2022-09-25T02:25:00.477Z,13.79
2022-09-25T02:27:32.618Z,13.78
2022-09-25T02:30:04.583Z,13.77
2022-09-25T02:32:35.835Z,13.75
2022-09-25T02:35:07.348Z,13.67
2022-09-25T02:37:38.665Z,13.73
2022-09-25T02:40:11.513Z,13.72
2022-09-25T02:42:50.345Z,13.71
2022-09-25T02:45:52.040Z,13.70
2022-09-25T02:48:41.148Z,13.68
2022-09-25T02:51:24.903Z,13.66
2022-09-25T02:54:08.435Z,13.63
2022-09-25T02:57:04.278Z,13.62
2022-09-25T02:59:41.535Z,13.52
2022-09-25T03:02:15.621Z,13.60
2022-09-25T03:04:48.646Z,13.51
2022-09-25T03:07:20.213Z,13.57
2022-09-25T03:09:54.921Z,13.61
2022-09-25T03:12:26.175Z,13.52
2022-09-25T03:14:57.442Z,13.58
2022-09-25T03:17:28.757Z,13.48
2022-09-25T03:20:00.134Z,13.55
2022-09-25T03:22:31.449Z,13.53
2022-09-25T03:25:04.521Z,13.55
2022-09-25T03:27:36.340Z,13.58
2022-09-25T03:30:08.336Z,13.56
2022-09-25T03:32:42.029Z,13.63
2022-09-25T03:35:13.363Z,13.65
2022-09-25T03:37:44.617Z,13.67
2022-09-25T03:40:16.347Z,13.68
2022-09-25T03:42:48.342Z,13.63
2022-09-25T03:45:19.828Z,13.66
2022-09-25T03:47:51.138Z,13.66
2022-09-25T03:50:22.414Z,13.63
2022-09-25T03:52:53.673Z,13.58
2022-09-25T03:55:25.990Z,13.61
2022-09-25T03:57:57.417Z,13.66
2022-09-25T04:00:28.729Z,13.58
2022-09-25T04:03:00.157Z,13.63
2022-09-25T04:05:31.418Z,13.63
2022-09-25T04:08:02.707Z,13.66
2022-09-25T04:10:38.750Z,13.71
2022-09-25T04:13:13.315Z,13.72
2022-09-25T04:15:44.582Z,13.68
2022-09-25T04:18:15.876Z,13.67
2022-09-25T04:20:47.281Z,13.68
2022-09-25T04:23:18.557Z,13.68
2022-09-25T04:25:49.961Z,13.68
2022-09-25T04:28:22.388Z,13.57
2022-09-25T04:30:53.785Z,13.67
2022-09-25T04:33:43.913Z,13.57
2022-09-25T04:36:18.841Z,13.65
2022-09-25T04:38:50.115Z,13.54
2022-09-25T04:41:21.451Z,13.62
2022-09-25T04:43:52.695Z,13.61
2022-09-25T04:46:24.077Z,13.60
2022-09-25T04:48:55.347Z,13.61
2022-09-25T04:51:26.602Z,13.62
2022-09-25T04:53:57.937Z,13.60
2022-09-25T04:56:29.368Z,13.59
2022-09-25T04:59:00.643Z,13.46
2022-09-25T05:01:31.915Z,13.56
2022-09-25T05:04:08.329Z,13.56
2022-09-25T05:06:40.085Z,13.42
2022-09-25T05:09:11.381Z,13.57
2022-09-25T05:11:42.638Z,13.56
2022-09-25T05:14:13.913Z,13.56
2022-09-25T05:16:48.902Z,13.55
2022-09-25T05:19:20.157Z,13.51
2022-09-25T05:21:52.945Z,13.42
2022-09-25T05:24:24.186Z,13.36
2022-09-25T05:26:55.486Z,13.40
2022-09-25T05:29:26.748Z,13.36
2022-09-25T05:31:58.012Z,13.34
2022-09-25T05:34:29.254Z,13.30
2022-09-25T05:37:00.609Z,13.31
2022-09-25T05:39:31.841Z,13.31
2022-09-25T05:42:03.298Z,13.30
2022-09-25T05:44:34.661Z,13.29
2022-09-25T05:47:07.642Z,13.28
2022-09-25T05:49:38.874Z,13.24
2022-09-25T05:52:10.130Z,13.31
2022-09-25T05:54:41.896Z,13.31
2022-09-25T05:57:13.162Z,13.30
2022-09-25T05:59:44.476Z,13.33
2022-09-25T06:02:16.817Z,13.29
2022-09-25T06:04:48.197Z,13.34
2022-09-25T06:07:19.862Z,13.31
2022-09-25T06:09:51.149Z,13.20
2022-09-25T06:12:24.686Z,13.21
2022-09-25T06:14:55.997Z,13.20
2022-09-25T06:17:27.230Z,13.26
2022-09-25T06:19:58.472Z,13.25
2022-09-25T06:22:30.108Z,13.25
2022-09-25T06:25:01.375Z,13.27
2022-09-25T06:27:33.709Z,13.22
2022-09-25T06:30:05.877Z,13.26
2022-09-25T06:32:38.041Z,13.32
2022-09-25T06:35:09.429Z,13.34
2022-09-25T06:37:40.660Z,13.20
2022-09-25T06:40:11.957Z,13.30
2022-09-25T06:42:44.979Z,13.22
2022-09-25T06:45:16.306Z,13.28
2022-09-25T06:47:47.541Z,13.21
2022-09-25T06:50:18.821Z,13.24
2022-09-25T06:52:50.061Z,13.18
2022-09-25T06:55:21.322Z,13.28
2022-09-25T06:57:52.835Z,13.24
2022-09-25T07:00:24.227Z,13.24
2022-09-25T07:03:16.232Z,13.11
2022-09-25T07:05:48.313Z,13.23
2022-09-25T07:08:21.089Z,13.20
2022-09-25T07:10:57.569Z,13.23
2022-09-25T07:13:31.472Z,13.25
2022-09-25T07:16:08.027Z,13.23
2022-09-25T07:18:39.723Z,13.23
2022-09-25T07:21:12.285Z,13.27
2022-09-25T07:23:44.458Z,13.29
2022-09-25T07:26:28.324Z,13.29
2022-09-25T07:29:06.366Z,13.27
2022-09-25T07:31:38.053Z,13.25
2022-09-25T07:34:10.004Z,13.24
2022-09-25T07:36:42.721Z,13.20
2022-09-25T07:39:18.338Z,13.14
2022-09-25T07:41:50.309Z,13.21
2022-09-25T07:44:29.045Z,13.11
2022-09-25T07:47:02.466Z,13.17
2022-09-25T07:49:34.915Z,13.19
2022-09-25T07:52:06.523Z,13.17
2022-09-25T07:54:38.190Z,13.21
2022-09-25T07:57:09.441Z,13.27
2022-09-25T07:59:40.726Z,13.25
2022-09-25T08:02:12.321Z,13.25
2022-09-25T08:04:43.621Z,13.24
2022-09-25T08:07:14.945Z,13.17
2022-09-25T08:09:46.365Z,13.15
2022-09-25T08:12:18.278Z,13.09
2022-09-25T08:14:50.378Z,13.15
2022-09-25T08:17:22.407Z,13.19
2022-09-25T08:19:53.653Z,13.24
2022-09-25T08:22:24.905Z,13.24
2022-09-25T08:24:56.174Z,13.22
2022-09-25T08:27:27.702Z,13.21
2022-09-25T08:29:59.081Z,13.15
2022-09-25T08:32:33.589Z,13.09
2022-09-25T08:35:05.362Z,13.19
2022-09-25T08:37:41.509Z,13.11
2022-09-25T08:40:17.699Z,13.17
2022-09-25T08:42:52.288Z,13.06
2022-09-25T08:45:47.303Z,13.12
2022-09-25T08:48:41.267Z,13.13
2022-09-25T08:51:13.094Z,13.12
2022-09-25T08:53:46.141Z,13.18
2022-09-25T08:56:17.956Z,13.14
2022-09-25T08:59:11.969Z,13.23
2022-09-25T09:01:54.711Z,13.30
2022-09-25T09:04:38.510Z,13.39
2022-09-25T09:07:32.677Z,13.40
2022-09-25T09:10:28.225Z,13.43
2022-09-25T09:13:06.352Z,13.40
2022-09-25T09:15:46.413Z,13.53
2022-09-25T09:18:26.627Z,13.59
2022-09-25T09:21:09.062Z,13.61
2022-09-25T09:23:59.357Z,13.74
2022-09-25T09:26:36.329Z,13.81
2022-09-25T09:29:39.425Z,13.86
2022-09-25T09:32:23.954Z,13.77
2022-09-25T09:35:06.163Z,13.84
2022-09-25T09:37:50.315Z,13.84
2022-09-25T09:40:47.062Z,13.82
2022-09-25T09:43:45.238Z,13.81
2022-09-25T09:46:32.857Z,13.74
2022-09-25T09:49:18.383Z,13.77
2022-09-25T09:52:03.730Z,13.78
2022-09-25T09:54:47.964Z,13.81
2022-09-25T09:57:22.526Z,13.83
2022-09-25T10:00:04.370Z,13.74
2022-09-25T10:02:41.011Z,13.87
2022-09-25T10:05:51.976Z,13.86
2022-09-25T10:08:23.588Z,13.89
2022-09-25T10:10:59.163Z,13.94
2022-09-25T10:13:34.265Z,13.96
2022-09-25T10:16:11.545Z,13.96
2022-09-25T10:18:49.198Z,14.01
2022-09-25T10:21:24.229Z,14.13
2022-09-25T10:23:58.438Z,14.16
2022-09-25T10:26:33.216Z,14.20
2022-09-25T10:29:25.518Z,14.14
2022-09-25T10:32:03.723Z,14.11
2022-09-25T10:34:35.578Z,14.03
2022-09-25T10:37:19.650Z,13.92
2022-09-25T10:40:22.666Z,13.88
2022-09-25T10:43:24.084Z,13.80
2022-09-25T10:46:15.484Z,13.72
2022-09-25T10:49:05.698Z,13.71
2022-09-25T10:51:36.989Z,13.71
2022-09-25T10:54:13.675Z,13.72
2022-09-25T10:56:45.277Z,13.78
2022-09-25T10:59:21.019Z,13.79
2022-09-25T11:01:55.777Z,13.69
2022-09-25T11:04:30.705Z,13.70
2022-09-25T11:07:07.522Z,13.71
2022-09-25T11:09:44.841Z,13.69
2022-09-25T11:12:23.618Z,13.54
2022-09-25T11:14:59.025Z,13.65
2022-09-25T11:17:41.897Z,13.69
2022-09-25T11:20:16.460Z,13.71
2022-09-25T11:23:23.802Z,13.70
2022-09-25T11:26:15.685Z,13.72
2022-09-25T11:29:01.176Z,13.60
2022-09-25T11:31:39.398Z,13.77
2022-09-25T11:34:24.902Z,13.76
2022-09-25T11:37:15.102Z,13.80
2022-09-25T11:40:23.258Z,13.89
2022-09-25T11:43:11.150Z,13.99
2022-09-25T11:45:51.868Z,13.95
2022-09-25T11:48:50.059Z,14.01
2022-09-25T11:51:28.988Z,13.98
2022-09-25T11:54:32.604Z,13.87
2022-09-25T11:57:32.002Z,13.91
2022-09-25T12:00:21.209Z,13.89
2022-09-25T12:03:06.285Z,13.86
2022-09-25T12:06:05.580Z,13.93
2022-09-25T12:08:50.950Z,14.02
2022-09-25T12:11:30.394Z,14.01
2022-09-25T12:14:20.213Z,14.12
2022-09-25T12:17:11.467Z,14.23
2022-09-25T12:20:07.387Z,14.35
2022-09-25T12:23:00.965Z,14.33
2022-09-25T12:26:06.535Z,14.24
2022-09-25T12:29:15.699Z,14.19
2022-09-25T12:32:05.853Z,14.16
2022-09-25T12:35:08.774Z,14.18
2022-09-25T12:37:53.045Z,14.10
2022-09-25T12:40:32.269Z,14.06
2022-09-25T12:43:18.167Z,14.12
2022-09-25T12:46:24.700Z,14.28
2022-09-25T12:49:11.535Z,14.26
2022-09-25T12:51:50.719Z,14.24
2022-09-25T12:54:59.721Z,14.44
2022-09-25T12:57:41.553Z,14.56
2022-09-25T13:00:21.145Z,14.68
2022-09-25T13:03:00.830Z,14.97
2022-09-25T13:05:44.090Z,15.27
2022-09-25T13:08:23.416Z,15.36
2022-09-25T13:10:59.845Z,15.54
2022-09-25T13:13:39.913Z,15.61
2022-09-25T13:16:14.732Z,15.72
2022-09-25T13:19:07.444Z,15.73
2022-09-25T13:21:42.864Z,15.77
2022-09-25T13:24:19.612Z,15.84
2022-09-25T13:26:55.048Z,15.94
2022-09-25T13:29:30.528Z,16.12
2022-09-25T13:32:13.741Z,16.18
2022-09-25T13:34:45.934Z,16.20
2022-09-25T13:37:17.516Z,16.12
2022-09-25T13:40:08.864Z,16.06
2022-09-25T13:42:46.361Z,16.00
2022-09-25T13:45:37.293Z,15.79
2022-09-25T13:48:12.362Z,15.74
2022-09-25T13:50:47.704Z,15.89
2022-09-25T13:53:26.581Z,16.03
2022-09-25T13:55:57.893Z,16.07
2022-09-25T13:58:59.153Z,16.02
2022-09-25T14:01:45.084Z,15.99
2022-09-25T14:04:17.346Z,15.98
2022-09-25T14:06:53.957Z,15.82
2022-09-25T14:09:29.778Z,15.72
2022-09-25T14:12:22.528Z,15.50
2022-09-25T14:15:07.437Z,15.36
2022-09-25T14:17:43.535Z,15.28
2022-09-25T14:20:26.104Z,15.34
2022-09-25T14:23:01.124Z,15.38
2022-09-25T14:25:38.192Z,15.57
2022-09-25T14:28:30.337Z,15.76
2022-09-25T14:31:15.391Z,15.79
2022-09-25T14:34:12.339Z,15.80
2022-09-25T14:37:23.047Z,15.96
2022-09-25T14:40:20.091Z,15.85
2022-09-25T14:43:10.465Z,15.81
2022-09-25T14:46:07.633Z,15.86
2022-09-25T14:48:52.370Z,15.78
2022-09-25T14:51:40.724Z,16.00
2022-09-25T14:54:17.706Z,16.07
2022-09-25T14:56:54.716Z,16.00
2022-09-25T14:59:39.516Z,15.98
2022-09-25T15:02:18.615Z,15.90
2022-09-25T15:04:51.005Z,15.80
2022-09-25T15:07:27.740Z,15.68
2022-09-25T15:10:01.011Z,15.58
2022-09-25T15:12:36.439Z,15.46
2022-09-25T15:15:12.583Z,15.34
2022-09-25T15:17:48.704Z,15.25
2022-09-25T15:20:28.595Z,15.17
2022-09-25T15:23:10.335Z,15.13
2022-09-25T15:25:45.810Z,15.35
2022-09-25T15:28:20.167Z,15.42
2022-09-25T15:31:01.395Z,15.42
2022-09-25T15:33:36.989Z,15.42
2022-09-25T15:36:20.126Z,15.58
2022-09-25T15:39:00.005Z,15.61
2022-09-25T15:41:31.281Z,15.58
2022-09-25T15:44:24.146Z,15.55
2022-09-25T15:47:01.885Z,15.41
2022-09-25T15:49:38.397Z,15.50
2022-09-25T15:52:29.482Z,15.46
2022-09-25T15:55:05.605Z,15.41
2022-09-25T15:57:36.905Z,15.43
2022-09-25T16:00:36.712Z,15.35
2022-09-25T16:03:38.399Z,15.30
2022-09-25T16:06:15.523Z,15.21
2022-09-25T16:08:47.825Z,15.24
2022-09-25T16:11:26.599Z,15.24
2022-09-25T16:14:29.272Z,15.23
2022-09-25T16:17:00.685Z,15.21
2022-09-25T16:19:34.202Z,15.16
2022-09-25T16:22:20.126Z,15.11
2022-09-25T16:24:52.903Z,15.07
2022-09-25T16:27:32.945Z,15.00
2022-09-25T16:30:05.020Z,14.87
2022-09-25T16:32:36.302Z,14.87
2022-09-25T16:35:21.332Z,14.84
2022-09-25T16:37:53.346Z,14.78
2022-09-25T16:40:33.689Z,14.71
2022-09-25T16:43:25.498Z,14.64
2022-09-25T16:46:02.038Z,14.55
2022-09-25T16:48:39.124Z,14.44
2022-09-25T16:51:21.953Z,14.32
2022-09-25T16:53:55.025Z,14.20
2022-09-25T16:56:31.403Z,14.07
2022-09-25T16:59:05.127Z,13.96
2022-09-25T17:01:38.349Z,13.86
2022-09-25T17:04:12.026Z,13.73
2022-09-25T17:06:45.740Z,13.60
2022-09-25T17:09:17.837Z,13.46
2022-09-25T17:11:50.155Z,13.35
2022-09-25T17:14:26.137Z,13.24
2022-09-25T17:16:58.869Z,13.12
2022-09-25T17:19:30.250Z,13.01
2022-09-25T17:22:01.645Z,12.90
2022-09-25T17:24:32.969Z,12.80
2022-09-25T17:27:13.434Z,12.70
2022-09-25T17:29:46.580Z,12.61
2022-09-25T17:32:17.878Z,12.55
2022-09-25T17:34:50.161Z,12.43
2022-09-25T17:37:21.506Z,12.40
2022-09-25T17:39:52.894Z,12.35
2022-09-25T17:42:26.582Z,12.23
2022-09-25T17:44:58.009Z,12.23
2022-09-25T17:47:31.623Z,12.17
2022-09-25T17:50:03.093Z,12.04
2022-09-25T17:52:34.361Z,11.98
2022-09-25T17:55:16.678Z,11.93
2022-09-25T17:57:48.622Z,11.99
2022-09-25T18:00:20.415Z,11.93
2022-09-25T18:02:51.785Z,11.84
2022-09-25T18:05:24.102Z,11.84
2022-09-25T18:07:55.945Z,11.77
2022-09-25T18:10:30.409Z,11.72
2022-09-25T18:13:02.345Z,11.59
2022-09-25T18:15:36.658Z,11.54
2022-09-25T18:18:09.066Z,11.46
2022-09-25T18:20:58.840Z,11.37
2022-09-25T18:23:33.445Z,11.28
2022-09-25T18:26:08.130Z,11.19
2022-09-25T18:28:39.406Z,11.11
2022-09-25T18:31:11.164Z,11.04
2022-09-25T18:33:47.183Z,10.92
2022-09-25T18:36:18.754Z,10.90
2022-09-25T18:38:50.070Z,10.78
2022-09-25T18:41:21.336Z,10.70
2022-09-25T18:43:52.955Z,10.57
2022-09-25T18:46:24.423Z,10.55
2022-09-25T18:48:57.635Z,10.47
2022-09-25T18:51:29.022Z,10.34
2022-09-25T18:54:00.585Z,10.36
2022-09-25T18:56:34.413Z,10.18
2022-09-25T18:59:07.590Z,10.24
2022-09-25T19:01:39.612Z,10.18
2022-09-25T19:04:16.796Z,10.12
2022-09-25T19:06:48.585Z,10.05
2022-09-25T19:09:24.464Z,9.99
2022-09-25T19:11:55.810Z,9.94
2022-09-25T19:14:27.118Z,9.89
2022-09-25T19:16:58.468Z,9.84
2022-09-25T19:19:32.963Z,9.80
2022-09-25T19:22:04.926Z,9.74
2022-09-25T19:24:39.381Z,9.67
2022-09-25T19:27:11.990Z,9.65
2022-09-25T19:29:47.014Z,9.61
2022-09-25T19:32:18.399Z,9.57
2022-09-25T19:34:49.945Z,9.52
2022-09-25T19:37:24.002Z,9.48
2022-09-25T19:40:14.444Z,9.44
2022-09-25T19:42:46.796Z,9.38
2022-09-25T19:45:19.181Z,9.32
2022-09-25T19:47:50.651Z,9.27
2022-09-25T19:50:21.948Z,9.23
2022-09-25T19:52:54.713Z,9.20
2022-09-25T19:55:26.062Z,9.04
2022-09-25T19:57:57.684Z,9.05
2022-09-25T20:00:29.310Z,9.05
2022-09-25T20:03:00.755Z,8.91
2022-09-25T20:05:37.611Z,8.96
2022-09-25T20:08:09.506Z,8.91
2022-09-25T20:10:41.110Z,8.81
2022-09-25T20:13:13.513Z,8.75
2022-09-25T20:15:47.547Z,8.77
2022-09-25T20:18:18.962Z,8.71
2022-09-25T20:20:50.314Z,8.64
2022-09-25T20:23:21.638Z,8.58
2022-09-25T20:25:53.048Z,8.60
2022-09-25T20:28:25.253Z,8.57
2022-09-25T20:30:56.547Z,8.51
2022-09-25T20:33:32.468Z,8.49
2022-09-25T20:36:07.791Z,8.35
2022-09-25T20:38:39.163Z,8.41
2022-09-25T20:41:12.313Z,8.35
2022-09-25T20:43:46.910Z,8.30
2022-09-25T20:46:20.211Z,8.27
2022-09-25T20:48:53.300Z,8.23
2022-09-25T20:51:27.345Z,8.13
2022-09-25T20:54:07.638Z,8.16
2022-09-25T20:56:44.729Z,8.14
2022-09-25T20:59:16.732Z,8.11
2022-09-25T21:01:48.072Z,8.09
2022-09-25T21:04:19.612Z,8.02
2022-09-25T21:06:50.908Z,8.06
2022-09-25T21:09:25.471Z,8.05
2022-09-25T21:11:56.788Z,7.98
2022-09-25T21:14:28.549Z,7.95
2022-09-25T21:16:59.907Z,8.01
2022-09-25T21:19:31.721Z,7.92
2022-09-25T21:22:03.486Z,7.95
2022-09-25T21:24:35.813Z,7.95
2022-09-25T21:27:07.126Z,7.92
2022-09-25T21:29:38.444Z,7.86
2022-09-25T21:32:09.853Z,7.87
2022-09-25T21:34:41.099Z,7.81
2022-09-25T21:37:12.413Z,7.71
2022-09-25T21:39:43.742Z,7.73
2022-09-25T21:42:15.592Z,7.67
2022-09-25T21:44:47.334Z,7.69
2022-09-25T21:47:19.895Z,7.61
2022-09-25T21:49:51.336Z,7.57
2022-09-25T21:52:25.033Z,7.63
2022-09-25T21:54:56.289Z,7.62
2022-09-25T21:57:27.563Z,7.60
2022-09-25T21:59:58.830Z,7.54
2022-09-25T22:02:31.176Z,7.59
2022-09-25T22:05:02.493Z,7.55
2022-09-25T22:07:33.889Z,7.57
2022-09-25T22:10:05.822Z,7.55
2022-09-25T22:12:37.252Z,7.50
2022-09-25T22:15:09.454Z,7.49
2022-09-25T22:17:40.788Z,7.48
2022-09-25T22:20:12.226Z,7.40
2022-09-25T22:22:43.489Z,7.37
2022-09-25T22:25:14.903Z,7.37
2022-09-25T22:27:46.282Z,7.44
2022-09-25T22:30:17.525Z,7.43
2022-09-25T22:32:48.765Z,7.39
2022-09-25T22:35:20.010Z,7.40
2022-09-25T22:37:51.354Z,7.40
2022-09-25T22:40:22.651Z,7.36
2022-09-25T22:42:54.066Z,7.39
2022-09-25T22:45:25.393Z,7.35
2022-09-25T22:47:58.880Z,7.40
2022-09-25T22:50:30.127Z,7.40
2022-09-25T22:53:01.382Z,7.33
2022-09-25T22:55:32.785Z,7.42
2022-09-25T22:58:04.053Z,7.46
2022-09-25T23:00:35.308Z,7.45
2022-09-25T23:03:06.561Z,7.45
2022-09-25T23:05:39.315Z,7.52
2022-09-25T23:08:11.524Z,7.53
2022-09-25T23:11:06.044Z,7.58
2022-09-25T23:13:34.609Z,7.60
2022-09-25T23:16:08.105Z,7.64
2022-09-25T23:18:39.385Z,7.66
2022-09-25T23:21:10.679Z,7.68
2022-09-25T23:23:41.994Z,7.69
2022-09-25T23:26:13.235Z,7.74
2022-09-25T23:28:44.502Z,7.77
2022-09-25T23:31:17.356Z,7.81
2022-09-25T23:33:48.702Z,7.84
2022-09-25T23:36:21.962Z,7.90
2022-09-25T23:38:55.023Z,7.93
2022-09-25T23:41:29.999Z,8.01
2022-09-25T23:44:03.270Z,8.08
2022-09-25T23:46:37.860Z,8.12
2022-09-25T23:49:10.277Z,8.18
2022-09-25T23:51:41.634Z,8.23
2022-09-25T23:54:12.930Z,8.25
2022-09-25T23:56:44.306Z,8.23
2022-09-25T23:59:15.951Z,8.29
